• Join FlightAware (Why Join?)
  • Login
  • US Flag 
12:41PM EDT


 

Airport Tracker/Info


-or-


 

Live Flight TrackerFlight Track Log ✈ UAL4515 ✈ 22-Apr-2013 ✈ KEWR - KMHT

Flight Track Log - Related Links

Times and Time Zones

All times are in EDT time to prevent confusion due to time zone crossing. See the UAL4515 flight status page for this flight to view local times or setup timezone preferences in your user account.

Time Position Orientation Groundspeed Altitude Reporting Facility
EDT Latitude Longitude Course Direction KTS MPH feet Rate Location/Type
09:12AM 40.7000 -74.1667 40° Northeast 148 170 900  Level New York TRACON
09:13AM 40.7500 -74.1167 37° Northeast 207 238 2,800 2,100 Climbing New York TRACON
09:14AM 40.8000 -74.0833 27° Northeast 243 280 5,100 2,400 Climbing New York TRACON
09:15AM 40.9710 -73.8456 37° Northeast  Level FlightAware Approximate
09:15AM 40.8500 -74.0167 45° Northeast 256 295 7,600  Level New York TRACON
09:16AM 41.0469 -73.7640 40° Northeast  Level FlightAware Approximate
09:17AM 41.1215 -73.6800 40° Northeast  Level FlightAware Approximate
09:17AM 40.9806 -73.8533 43° Northeast 291 335 10,700  Level Boston Center
09:18AM 41.0736 -73.7506 40° Northeast 347 399 12,000 1,140 Climbing Boston Center
09:19AM 41.1494 -73.6722 38° Northeast 372 428 13,000 1,020 Climbing Boston Center
09:20AM 41.2422 -73.5747 38° Northeast 383 441 14,100 1,020 Climbing Boston Center
09:21AM 41.3181 -73.4875 41° Northeast 388 447 15,100 1,020 Climbing Boston Center
09:22AM 41.4147 -73.3839 39° Northeast 395 455 16,200 1,020 Climbing Boston Center
09:23AM 41.5031 -73.2883 39° Northeast 405 466 17,200 960 Climbing Boston Center
09:24AM 41.5725 -73.1919 46° Northeast 400 460 18,200 660 Climbing Boston Center
09:25AM 41.6814 -73.1239 25° Northeast 374 430 18,600 600 Climbing Boston Center
09:26AM 41.7939 -73.1333 356° North 382 440 19,500 900 Climbing Boston Center
09:27AM 41.9064 -73.1542 352° North 395 455 20,500 900 Climbing Boston Center
09:28AM 42.0000 -73.1719 352° North 400 460 21,300 1,020 Climbing Boston Center
09:29AM 42.1375 -73.1961 353° North 412 474 22,600 840 Climbing Boston Center
09:30AM 42.2561 -73.2169 353° North 417 480 23,000 120 Climbing Boston Center
09:31AM 42.3686 -73.2269 356° North 436 502 22,900 -540 Descending Boston Center
09:32AM 42.4936 -73.2369 357° North 446 513 22,000 -900 Descending Boston Center
09:33AM 42.5983 -73.1564 30° Northeast 426 490 21,100 -960 Descending Boston Center
09:34AM 42.6450 -73.0075 67° East 389 448 20,100 -960 Descending Boston Center
09:35AM 42.6769 -72.8411 75° East 392 451 19,200 -900 Descending Boston Center
09:36AM 42.7106 -72.6944 73° East 406 467 18,200 -960 Descending Boston Center
09:37AM 42.7464 -72.5250 74° East 401 461 17,200 -1,980 Descending Boston Center
09:38AM 42.7775 -72.3806 74° East 401 461 14,300 -2,760 Descending Boston Center
09:39AM 42.7983 -72.2447 78° East 386 444 11,700 -2,040 Descending Boston Center
09:40AM 42.8083 -72.1119 84° East 339 390 10,300 -1,380 Descending Boston Center
09:41AM 42.8164 -72.0183 83° East 294 338 9,000 -1,560 Descending Boston Center
09:42AM 42.8244 -71.9078 84° East 265 305 7,200 -1,500 Descending Boston Center
09:43AM 42.8322 -71.8286 82° East 253 291 6,000 -1,500 Descending Boston Center
09:44AM 42.8419 -71.7267 83° East 243 280 4,200 -1,500 Descending Boston Center
09:45AM 42.8542 -71.6500 78° East 233 268 3,000 -960 Descending Boston Center
09:47AM 42.8639 -71.5564 82° East 228 262 2,100 -780 Descending Boston Center